createdAt,value
2023-08-11T00:01:10.854Z,52.35
2023-08-11T00:03:37.913Z,52.49
2023-08-11T00:06:08.689Z,52.58
2023-08-11T00:08:38.267Z,52.44
2023-08-11T00:11:17.465Z,52.94
2023-08-11T00:13:49.414Z,53.23
2023-08-11T00:16:16.438Z,53.69
2023-08-11T00:18:44.122Z,53.18
2023-08-11T00:21:11.118Z,52.98
2023-08-11T00:23:45.592Z,53.43
2023-08-11T00:26:12.651Z,53.41
2023-08-11T00:28:40.417Z,53.48
2023-08-11T00:31:07.660Z,53.30
2023-08-11T00:33:34.660Z,53.57
2023-08-11T00:36:01.508Z,53.63
2023-08-11T00:38:42.879Z,54.22
2023-08-11T00:41:12.475Z,54.00
2023-08-11T00:43:40.472Z,54.19
2023-08-11T00:46:12.389Z,54.39
2023-08-11T00:48:40.381Z,54.06
2023-08-11T00:51:08.837Z,54.22
2023-08-11T00:53:36.339Z,54.43
2023-08-11T00:56:04.547Z,54.63
2023-08-11T00:58:35.164Z,54.59
2023-08-11T01:01:02.203Z,54.55
2023-08-11T01:03:32.127Z,54.61
2023-08-11T01:06:17.827Z,54.74
2023-08-11T01:09:07.303Z,55.07
2023-08-11T01:11:48.550Z,55.08
2023-08-11T01:14:24.393Z,55.49
2023-08-11T01:16:53.180Z,55.37
2023-08-11T01:19:29.810Z,55.35
2023-08-11T01:22:01.031Z,55.63
2023-08-11T01:24:29.690Z,55.90
2023-08-11T01:26:58.850Z,55.36
2023-08-11T01:29:26.904Z,55.48
2023-08-11T01:31:54.388Z,55.92
2023-08-11T01:34:29.464Z,55.85
2023-08-11T01:37:01.635Z,56.47
2023-08-11T01:39:29.908Z,57.08
2023-08-11T01:41:57.512Z,56.43
2023-08-11T01:44:26.612Z,56.62
2023-08-11T01:46:57.014Z,56.99
2023-08-11T01:49:26.383Z,56.42
2023-08-11T01:51:58.554Z,56.92
2023-08-11T01:54:25.994Z,56.70
2023-08-11T01:56:53.436Z,56.93
2023-08-11T01:59:23.925Z,56.89
2023-08-11T02:02:03.079Z,57.18
2023-08-11T02:04:30.110Z,57.16
2023-08-11T02:06:57.130Z,57.26
2023-08-11T02:09:24.158Z,57.41
2023-08-11T02:11:51.104Z,57.12
2023-08-11T02:14:18.980Z,57.17
2023-08-11T02:16:45.955Z,57.37
2023-08-11T02:19:17.278Z,57.74
2023-08-11T02:21:44.318Z,57.30
2023-08-11T02:24:11.299Z,57.16
2023-08-11T02:26:38.794Z,57.98
2023-08-11T02:29:07.184Z,57.32
2023-08-11T02:31:38.757Z,57.62
2023-08-11T02:34:06.361Z,57.60
2023-08-11T02:36:33.320Z,57.38
2023-08-11T02:39:00.356Z,58.19
2023-08-11T02:41:27.473Z,58.32
2023-08-11T02:43:54.583Z,58.56
2023-08-11T02:46:21.781Z,58.56
2023-08-11T02:48:51.671Z,58.75
2023-08-11T02:51:19.882Z,58.69
2023-08-11T02:53:46.858Z,58.83
2023-08-11T02:56:16.823Z,58.48
2023-08-11T02:58:44.033Z,58.45
2023-08-11T03:01:11.806Z,58.77
2023-08-11T03:03:39.497Z,58.52
2023-08-11T03:06:06.484Z,58.76
2023-08-11T03:08:35.075Z,59.54
2023-08-11T03:11:01.925Z,59.43
2023-08-11T03:13:30.523Z,59.33
2023-08-11T03:15:57.739Z,59.63
2023-08-11T03:18:26.505Z,59.31
2023-08-11T03:21:06.259Z,59.71
2023-08-11T03:23:41.178Z,60.03
2023-08-11T03:26:08.248Z,59.89
2023-08-11T03:28:35.136Z,59.67
2023-08-11T03:31:02.162Z,60.19
2023-08-11T03:33:29.092Z,60.40
2023-08-11T03:36:05.310Z,60.29
2023-08-11T03:38:32.272Z,60.13
2023-08-11T03:40:59.323Z,60.34
2023-08-11T03:43:26.428Z,60.52
2023-08-11T03:45:53.693Z,60.64
2023-08-11T03:48:20.790Z,60.21
2023-08-11T03:50:47.988Z,60.73
2023-08-11T03:53:18.412Z,61.17
2023-08-11T03:55:48.070Z,61.06
2023-08-11T03:58:20.876Z,60.50
2023-08-11T04:00:48.085Z,60.76
2023-08-11T04:03:16.579Z,61.08
2023-08-11T04:05:47.669Z,61.39
2023-08-11T04:08:14.572Z,61.03
2023-08-11T04:10:44.573Z,61.09
2023-08-11T04:13:11.714Z,61.43
2023-08-11T04:15:40.988Z,61.22
2023-08-11T04:18:14.282Z,61.28
2023-08-11T04:20:41.530Z,61.30
2023-08-11T04:23:10.113Z,61.20
2023-08-11T04:25:37.130Z,61.59
2023-08-11T04:28:04.754Z,61.53
2023-08-11T04:30:32.052Z,61.56
2023-08-11T04:32:59.739Z,61.51
2023-08-11T04:35:27.138Z,61.39
2023-08-11T04:37:54.093Z,60.56
2023-08-11T04:40:23.602Z,60.81
2023-08-11T04:42:50.555Z,61.23
2023-08-11T04:45:17.408Z,61.66
2023-08-11T04:47:44.535Z,61.87
2023-08-11T04:50:13.437Z,61.43
2023-08-11T04:52:47.310Z,60.83
2023-08-11T04:55:14.706Z,61.43
2023-08-11T04:57:41.625Z,61.93
2023-08-11T05:00:15.236Z,62.23
2023-08-11T05:02:43.408Z,62.20
2023-08-11T05:05:10.868Z,62.07
2023-08-11T05:07:39.341Z,62.60
2023-08-11T05:10:07.035Z,62.49
2023-08-11T05:12:34.782Z,62.58
2023-08-11T05:15:09.752Z,63.20
2023-08-11T05:17:44.282Z,63.07
2023-08-11T05:20:19.084Z,62.47
2023-08-11T05:22:46.089Z,61.80
2023-08-11T05:25:13.265Z,62.84
2023-08-11T05:27:43.797Z,62.13
2023-08-11T05:30:11.019Z,62.32
2023-08-11T05:32:38.288Z,61.73
2023-08-11T05:35:05.818Z,61.69
2023-08-11T05:37:34.098Z,61.69
2023-08-11T05:40:15.885Z,61.57
2023-08-11T05:42:47.723Z,61.91
2023-08-11T05:45:18.089Z,61.25
2023-08-11T05:47:45.379Z,61.37
2023-08-11T05:50:12.589Z,61.38
2023-08-11T05:52:39.622Z,60.38
2023-08-11T05:55:08.758Z,59.83
2023-08-11T05:57:47.258Z,59.07
2023-08-11T06:00:22.646Z,59.34
2023-08-11T06:02:56.259Z,58.73
2023-08-11T06:05:25.261Z,59.08
2023-08-11T06:08:05.143Z,58.67
2023-08-11T06:10:34.028Z,58.39
2023-08-11T06:13:01.352Z,58.11
2023-08-11T06:15:28.380Z,58.14
2023-08-11T06:17:55.907Z,58.36
2023-08-11T06:20:38.609Z,58.81
2023-08-11T06:23:09.226Z,58.47
2023-08-11T06:25:36.260Z,57.39
2023-08-11T06:28:03.485Z,56.86
2023-08-11T06:30:35.210Z,56.06
2023-08-11T06:33:10.659Z,55.92
2023-08-11T06:35:41.266Z,56.18
2023-08-11T06:38:11.756Z,56.61
2023-08-11T06:40:40.444Z,57.65
2023-08-11T06:43:10.787Z,58.10
2023-08-11T06:45:37.978Z,57.43
2023-08-11T06:48:05.439Z,57.30
2023-08-11T06:50:33.230Z,56.72
2023-08-11T06:53:00.711Z,56.80
2023-08-11T06:55:27.990Z,56.87
2023-08-11T06:57:59.853Z,57.14
2023-08-11T07:00:27.235Z,57.37
2023-08-11T07:02:54.581Z,56.93
2023-08-11T07:05:24.680Z,56.90
2023-08-11T07:07:53.031Z,55.62
2023-08-11T07:10:19.895Z,54.80
2023-08-11T07:12:46.978Z,55.11
2023-08-11T07:15:14.005Z,55.42
2023-08-11T07:17:41.120Z,55.16
2023-08-11T07:20:08.517Z,55.45
2023-08-11T07:22:36.232Z,55.64
2023-08-11T07:25:05.731Z,54.81
2023-08-11T07:27:32.786Z,54.67
2023-08-11T07:30:00.257Z,55.03
2023-08-11T07:32:28.309Z,55.07
2023-08-11T07:34:55.612Z,54.13
2023-08-11T07:37:22.914Z,53.98
2023-08-11T07:39:49.951Z,54.19
2023-08-11T07:42:16.938Z,54.48
2023-08-11T07:44:47.308Z,53.84
2023-08-11T07:47:14.220Z,53.90
2023-08-11T07:49:44.160Z,55.03
2023-08-11T07:52:23.543Z,54.93
2023-08-11T07:54:53.054Z,54.42
2023-08-11T07:57:21.302Z,53.97
2023-08-11T07:59:48.430Z,53.63
2023-08-11T08:02:16.950Z,53.39
2023-08-11T08:04:46.419Z,52.90
2023-08-11T08:07:13.535Z,52.81
2023-08-11T08:09:40.565Z,52.01
2023-08-11T08:12:17.328Z,52.76
2023-08-11T08:14:44.768Z,52.48
2023-08-11T08:17:11.868Z,52.21
2023-08-11T08:19:42.600Z,51.86
2023-08-11T08:22:10.722Z,52.23
2023-08-11T08:24:37.942Z,51.75
2023-08-11T08:27:05.120Z,51.84
2023-08-11T08:29:35.643Z,51.38
2023-08-11T08:32:02.532Z,50.41
2023-08-11T08:34:29.402Z,50.29
2023-08-11T08:36:57.334Z,50.37
2023-08-11T08:39:24.258Z,50.23
2023-08-11T08:41:53.880Z,50.09
2023-08-11T08:44:21.648Z,50.39
2023-08-11T08:46:51.607Z,50.27
2023-08-11T08:49:26.783Z,50.06
2023-08-11T08:51:55.868Z,50.24
2023-08-11T08:54:22.797Z,49.95
2023-08-11T08:56:51.162Z,49.79
2023-08-11T08:59:18.118Z,49.57
2023-08-11T09:01:45.718Z,49.17
2023-08-11T09:04:13.351Z,48.85
2023-08-11T09:06:40.881Z,47.61
2023-08-11T09:09:10.096Z,47.23
2023-08-11T09:11:39.591Z,47.16
2023-08-11T09:14:08.419Z,47.23
2023-08-11T09:16:36.449Z,46.90
2023-08-11T09:19:10.603Z,45.59
2023-08-11T09:21:37.882Z,45.03
2023-08-11T09:24:05.981Z,46.37
2023-08-11T09:26:33.910Z,46.15
2023-08-11T09:29:01.116Z,45.70
2023-08-11T09:31:29.943Z,44.55
2023-08-11T09:33:58.032Z,42.85
2023-08-11T09:36:35.258Z,41.65
2023-08-11T09:39:11.455Z,40.67
2023-08-11T09:41:42.470Z,42.68
2023-08-11T09:44:12.702Z,43.84
2023-08-11T09:46:40.744Z,42.91
2023-08-11T09:49:08.861Z,42.44
2023-08-11T09:51:37.517Z,43.34
2023-08-11T09:54:07.909Z,43.47
2023-08-11T09:56:43.721Z,41.65
2023-08-11T09:59:20.090Z,39.57
2023-08-11T10:01:49.958Z,40.72
2023-08-11T10:04:39.937Z,40.61
2023-08-11T10:07:14.711Z,40.15
2023-08-11T10:09:45.461Z,39.98
2023-08-11T10:12:14.391Z,40.70
2023-08-11T10:14:43.075Z,40.22
2023-08-11T10:17:11.879Z,40.85
2023-08-11T10:19:42.377Z,39.55
2023-08-11T10:22:13.463Z,39.81
2023-08-11T10:24:42.387Z,38.52
2023-08-11T10:27:09.743Z,38.67
2023-08-11T10:29:39.883Z,38.58
2023-08-11T10:32:14.551Z,38.83
2023-08-11T10:34:41.548Z,38.99
2023-08-11T10:37:09.431Z,38.73
2023-08-11T10:39:38.836Z,37.85
2023-08-11T10:42:07.262Z,37.79
2023-08-11T10:44:34.989Z,37.95
2023-08-11T10:47:04.345Z,37.37
2023-08-11T10:49:36.027Z,36.74
2023-08-11T10:52:13.926Z,37.16
2023-08-11T10:54:50.266Z,36.20
2023-08-11T10:57:17.588Z,36.46
2023-08-11T10:59:44.739Z,36.64
2023-08-11T11:02:13.826Z,36.33
2023-08-11T11:04:47.830Z,35.34
2023-08-11T11:07:16.130Z,35.38
2023-08-11T11:09:43.950Z,35.31
2023-08-11T11:12:11.845Z,35.25
2023-08-11T11:14:39.305Z,35.44
2023-08-11T11:17:07.718Z,34.99
2023-08-11T11:19:34.941Z,34.64
2023-08-11T11:22:01.996Z,34.04
2023-08-11T11:24:28.927Z,33.60
2023-08-11T11:26:57.787Z,33.33
2023-08-11T11:29:29.954Z,33.19
2023-08-11T11:31:58.139Z,32.94
2023-08-11T11:34:25.381Z,32.71
2023-08-11T11:36:52.612Z,32.43
2023-08-11T11:39:20.181Z,32.55
2023-08-11T11:41:47.187Z,32.80
2023-08-11T11:44:14.585Z,31.98
2023-08-11T11:46:41.818Z,32.21
2023-08-11T11:49:19.571Z,31.38
2023-08-11T11:51:56.141Z,31.85
2023-08-11T11:54:27.140Z,31.34
2023-08-11T11:57:04.315Z,31.24
2023-08-11T11:59:37.100Z,30.81
2023-08-11T12:02:05.481Z,30.67
2023-08-11T12:04:32.936Z,30.62
2023-08-11T12:07:00.003Z,30.62
2023-08-11T12:09:27.007Z,29.92
2023-08-11T12:11:57.834Z,30.38
2023-08-11T12:14:35.430Z,29.82
2023-08-11T12:17:02.381Z,30.37
2023-08-11T12:19:30.090Z,30.18
2023-08-11T12:21:59.755Z,29.96
2023-08-11T12:24:34.809Z,29.68
2023-08-11T12:27:01.688Z,29.54
2023-08-11T12:29:28.878Z,29.50
2023-08-11T12:32:00.526Z,29.05
2023-08-11T12:34:28.470Z,28.88
2023-08-11T12:36:59.088Z,28.31
2023-08-11T12:39:29.473Z,28.31
2023-08-11T12:41:56.803Z,28.36
2023-08-11T12:44:26.046Z,27.77
2023-08-11T12:46:53.653Z,27.88
2023-08-11T12:49:23.278Z,28.36
2023-08-11T12:51:52.661Z,28.00
2023-08-11T12:54:20.115Z,27.83
2023-08-11T12:56:51.959Z,28.04
2023-08-11T12:59:18.962Z,27.54
2023-08-11T13:01:46.194Z,27.47
2023-08-11T13:04:13.601Z,27.89
2023-08-11T13:06:41.192Z,27.26
2023-08-11T13:09:13.155Z,26.98
2023-08-11T13:11:40.009Z,27.43
2023-08-11T13:14:08.000Z,26.90
2023-08-11T13:16:36.999Z,27.19
2023-08-11T13:19:04.802Z,27.12
2023-08-11T13:21:32.492Z,26.64
2023-08-11T13:24:00.913Z,26.27
2023-08-11T13:26:28.322Z,26.91
2023-08-11T13:28:58.512Z,26.92
2023-08-11T13:31:26.512Z,27.15
2023-08-11T13:33:53.464Z,27.81
2023-08-11T13:36:28.450Z,28.31
2023-08-11T13:38:57.981Z,28.51
2023-08-11T13:41:25.095Z,29.03
2023-08-11T13:43:56.405Z,29.36
2023-08-11T13:46:28.916Z,29.92
2023-08-11T13:49:00.528Z,29.29
2023-08-11T13:51:28.441Z,28.52
2023-08-11T13:53:55.460Z,27.96
2023-08-11T13:56:22.828Z,28.55
2023-08-11T13:58:49.971Z,28.98
2023-08-11T14:01:17.118Z,29.74
2023-08-11T14:03:50.301Z,30.67
2023-08-11T14:06:17.398Z,30.49
2023-08-11T14:08:47.305Z,30.56
2023-08-11T14:11:23.411Z,31.18
2023-08-11T14:14:02.737Z,30.80
2023-08-11T14:16:35.294Z,30.92
2023-08-11T14:19:02.596Z,30.60
2023-08-11T14:21:29.900Z,31.57
2023-08-11T14:23:57.023Z,31.64
2023-08-11T14:26:23.944Z,31.78
2023-08-11T14:28:51.780Z,31.84
2023-08-11T14:31:18.732Z,31.58
2023-08-11T14:33:45.865Z,32.28
2023-08-11T14:36:14.079Z,32.51
2023-08-11T14:38:42.110Z,32.56
2023-08-11T14:41:09.868Z,32.57
2023-08-11T14:43:36.756Z,32.83
2023-08-11T14:46:03.975Z,32.91
2023-08-11T14:48:31.123Z,33.03
2023-08-11T14:51:03.834Z,32.81
2023-08-11T14:53:31.501Z,33.19
2023-08-11T14:55:59.958Z,33.55
2023-08-11T14:58:26.897Z,33.74
2023-08-11T15:00:54.612Z,33.97
2023-08-11T15:03:22.494Z,34.17
2023-08-11T15:05:49.592Z,33.77
2023-08-11T15:08:16.678Z,33.52
2023-08-11T15:10:43.769Z,32.43
2023-08-11T15:13:10.784Z,31.17
2023-08-11T15:15:42.404Z,30.37
2023-08-11T15:18:09.632Z,29.74
2023-08-11T15:20:45.367Z,29.36
2023-08-11T15:23:12.955Z,28.54
2023-08-11T15:25:42.555Z,28.35
2023-08-11T15:28:19.602Z,27.73
2023-08-11T15:30:48.577Z,27.55
2023-08-11T15:33:20.790Z,27.18
2023-08-11T15:35:47.916Z,27.29
2023-08-11T15:38:18.076Z,27.58
2023-08-11T15:40:45.936Z,27.90
2023-08-11T15:43:13.148Z,28.26
2023-08-11T15:45:40.002Z,28.59
2023-08-11T15:48:07.178Z,28.67
2023-08-11T15:50:34.185Z,28.34
2023-08-11T15:53:06.447Z,28.91
2023-08-11T15:55:36.678Z,29.78
2023-08-11T15:58:05.094Z,30.46
2023-08-11T16:00:33.108Z,30.90
2023-08-11T16:03:00.861Z,31.48
2023-08-11T16:05:27.799Z,31.64
2023-08-11T16:07:54.772Z,31.68
2023-08-11T16:10:24.534Z,32.04
2023-08-11T16:12:52.001Z,32.26
2023-08-11T16:15:18.952Z,32.57
2023-08-11T16:17:45.966Z,32.26
2023-08-11T16:20:13.158Z,32.75
2023-08-11T16:22:40.059Z,32.69
2023-08-11T16:25:09.963Z,32.48
2023-08-11T16:27:36.971Z,32.84
2023-08-11T16:30:04.336Z,33.35
2023-08-11T16:32:32.205Z,33.77
2023-08-11T16:34:59.325Z,33.28
2023-08-11T16:37:26.455Z,32.66
2023-08-11T16:39:53.427Z,32.75
2023-08-11T16:42:20.869Z,32.61
2023-08-11T16:44:47.878Z,32.80
2023-08-11T16:47:14.867Z,32.59
2023-08-11T16:49:41.945Z,32.56
2023-08-11T16:52:17.679Z,31.78
2023-08-11T16:54:51.498Z,32.63
2023-08-11T16:57:24.181Z,31.36
2023-08-11T16:59:51.617Z,32.35
2023-08-11T17:02:18.924Z,32.62
2023-08-11T17:04:46.137Z,32.49
2023-08-11T17:07:13.135Z,33.38
2023-08-11T17:09:48.335Z,32.87
2023-08-11T17:12:20.679Z,32.27
2023-08-11T17:14:49.200Z,32.93
2023-08-11T17:17:16.266Z,33.04
2023-08-11T17:19:45.155Z,32.50
2023-08-11T17:22:19.748Z,33.19
2023-08-11T17:24:49.982Z,33.89
2023-08-11T17:27:17.162Z,33.54
2023-08-11T17:29:46.235Z,33.12
2023-08-11T17:32:13.317Z,33.41
2023-08-11T17:34:54.580Z,33.38
2023-08-11T17:37:33.409Z,33.30
2023-08-11T17:40:01.099Z,33.44
2023-08-11T17:42:29.593Z,34.18
2023-08-11T17:44:57.743Z,33.96
2023-08-11T17:47:24.786Z,33.67
2023-08-11T17:49:53.028Z,34.08
2023-08-11T17:52:20.210Z,34.33
2023-08-11T17:54:47.456Z,33.70
2023-08-11T17:57:16.839Z,34.49
2023-08-11T17:59:43.910Z,34.58
2023-08-11T18:02:11.308Z,34.16
2023-08-11T18:04:39.678Z,34.63
2023-08-11T18:07:06.650Z,34.48
2023-08-11T18:09:33.672Z,34.33
2023-08-11T18:12:00.710Z,35.02
2023-08-11T18:14:30.314Z,34.38
2023-08-11T18:17:02.235Z,34.71
2023-08-11T18:19:30.007Z,34.86
2023-08-11T18:21:57.047Z,35.24
2023-08-11T18:24:24.028Z,34.74
2023-08-11T18:26:54.460Z,34.91
2023-08-11T18:29:21.644Z,35.00
2023-08-11T18:31:48.875Z,35.29
2023-08-11T18:34:15.805Z,36.28
2023-08-11T18:36:42.819Z,35.36
2023-08-11T18:39:09.916Z,35.02
2023-08-11T18:41:37.385Z,35.26
2023-08-11T18:44:05.821Z,35.31
2023-08-11T18:46:42.192Z,35.53
2023-08-11T18:49:10.920Z,36.82
2023-08-11T18:51:38.401Z,36.07
2023-08-11T18:54:13.273Z,35.69
2023-08-11T18:56:44.059Z,35.51
2023-08-11T18:59:11.757Z,35.97
2023-08-11T19:01:48.808Z,36.28
2023-08-11T19:04:15.974Z,36.40
2023-08-11T19:06:43.983Z,36.32
2023-08-11T19:09:11.764Z,36.32
2023-08-11T19:11:50.047Z,36.98
2023-08-11T19:14:18.201Z,37.09
2023-08-11T19:16:45.599Z,36.56
2023-08-11T19:19:16.990Z,36.49
2023-08-11T19:21:47.879Z,36.39
2023-08-11T19:24:15.213Z,37.48
2023-08-11T19:26:42.113Z,36.76
2023-08-11T19:29:14.630Z,36.80
2023-08-11T19:31:41.650Z,37.18
2023-08-11T19:34:13.197Z,37.43
2023-08-11T19:36:42.730Z,37.27
2023-08-11T19:39:14.976Z,37.31
2023-08-11T19:41:42.394Z,37.42
2023-08-11T19:44:09.470Z,37.48
2023-08-11T19:46:36.470Z,37.58
2023-08-11T19:49:06.710Z,37.73
2023-08-11T19:51:33.733Z,37.49
2023-08-11T19:54:01.222Z,38.01
2023-08-11T19:56:30.420Z,38.33
2023-08-11T19:58:57.650Z,38.44
2023-08-11T20:01:24.835Z,38.24
2023-08-11T20:03:52.203Z,38.71
2023-08-11T20:06:19.265Z,38.90
2023-08-11T20:08:47.012Z,39.03
2023-08-11T20:11:20.260Z,38.86
2023-08-11T20:13:47.349Z,38.98
2023-08-11T20:16:14.990Z,39.63
2023-08-11T20:18:42.078Z,39.74
2023-08-11T20:21:09.340Z,39.64
2023-08-11T20:23:36.526Z,39.57
2023-08-11T20:26:03.568Z,39.64
2023-08-11T20:28:31.350Z,40.20
2023-08-11T20:31:02.788Z,40.54
2023-08-11T20:33:29.855Z,40.89
2023-08-11T20:36:02.901Z,40.96
2023-08-11T20:38:39.476Z,40.89
2023-08-11T20:41:07.383Z,41.24
2023-08-11T20:43:42.374Z,41.98
2023-08-11T20:46:09.454Z,41.85
2023-08-11T20:48:38.961Z,41.84
2023-08-11T20:51:15.325Z,42.22
2023-08-11T20:53:42.353Z,42.14
2023-08-11T20:56:19.469Z,42.26
2023-08-11T20:58:55.189Z,42.11
2023-08-11T21:01:22.606Z,42.33
2023-08-11T21:03:53.938Z,42.51
2023-08-11T21:06:27.769Z,42.59
2023-08-11T21:09:01.106Z,42.80
2023-08-11T21:11:28.131Z,42.78
2023-08-11T21:13:58.199Z,42.85
2023-08-11T21:16:25.136Z,42.76
2023-08-11T21:18:52.566Z,43.02
2023-08-11T21:21:19.610Z,43.53
2023-08-11T21:23:46.546Z,43.12
2023-08-11T21:26:13.700Z,44.10
2023-08-11T21:28:40.909Z,43.74
2023-08-11T21:31:17.426Z,44.08
2023-08-11T21:33:45.603Z,44.44
2023-08-11T21:36:15.729Z,43.84
2023-08-11T21:38:43.611Z,44.39
2023-08-11T21:41:12.832Z,44.37
2023-08-11T21:43:52.666Z,44.65
2023-08-11T21:46:31.512Z,44.87
2023-08-11T21:49:01.920Z,44.90
2023-08-11T21:51:28.915Z,45.03
2023-08-11T21:54:05.051Z,45.25
2023-08-11T21:56:32.011Z,45.42
2023-08-11T21:58:59.256Z,45.37
2023-08-11T22:01:26.490Z,45.25
2023-08-11T22:03:54.302Z,45.17
2023-08-11T22:06:21.468Z,45.82
2023-08-11T22:08:48.643Z,45.11
2023-08-11T22:11:33.841Z,44.86
2023-08-11T22:14:03.021Z,45.36
2023-08-11T22:16:30.479Z,45.72
2023-08-11T22:18:58.468Z,45.97
2023-08-11T22:21:25.811Z,45.78
2023-08-11T22:23:52.849Z,45.92
2023-08-11T22:26:23.010Z,46.52
2023-08-11T22:28:50.215Z,46.30
2023-08-11T22:31:17.285Z,46.76
2023-08-11T22:33:44.417Z,47.08
2023-08-11T22:36:11.530Z,47.34
2023-08-11T22:38:46.891Z,47.65
2023-08-11T22:41:13.931Z,47.66
2023-08-11T22:43:40.876Z,48.14
2023-08-11T22:46:10.808Z,48.40
2023-08-11T22:48:38.146Z,47.72
2023-08-11T22:51:06.940Z,47.73
2023-08-11T22:53:37.274Z,47.97
2023-08-11T22:56:04.482Z,47.42
2023-08-11T22:58:31.899Z,47.59
2023-08-11T23:00:59.015Z,47.29
2023-08-11T23:03:27.384Z,48.34
2023-08-11T23:05:54.408Z,48.04
2023-08-11T23:08:23.995Z,48.09
2023-08-11T23:10:51.791Z,48.88
2023-08-11T23:13:26.589Z,48.92
2023-08-11T23:15:57.809Z,49.16
2023-08-11T23:18:24.746Z,49.25
2023-08-11T23:20:56.323Z,49.46
2023-08-11T23:23:23.415Z,49.42
2023-08-11T23:25:57.001Z,49.87
2023-08-11T23:28:25.469Z,49.97
2023-08-11T23:30:52.677Z,49.71
2023-08-11T23:33:20.087Z,50.42
2023-08-11T23:35:47.315Z,50.79
2023-08-11T23:38:14.273Z,50.71
2023-08-11T23:40:41.280Z,50.57
2023-08-11T23:43:08.338Z,50.60
2023-08-11T23:45:36.137Z,50.37
2023-08-11T23:48:11.807Z,50.68
2023-08-11T23:50:47.230Z,51.35
2023-08-11T23:53:23.924Z,51.87
2023-08-11T23:55:59.285Z,51.43
2023-08-11T23:58:26.574Z,51.03
